C2 — ZCYD3 — position and weather

sailwx.info

Track history (hours):
 
Tides and Currents Weather Stations Pressure Air Temp Water Temp Dewpoint Dewpoint Depression Visibility Wind Speed Wind Dir Waves Ship Positions

C2

Last reported at 2015-Jul-29 02:15 UTC. Time now 2015-Jul-29 02:38 UTC.
Position N 39°33' E 002°40'.

Length 79 m; draft 3.4 m.

Type: Pleasure craft. MMSI: 319268000.

Date/timePositionNaut miles runAvg speedWind from/ knotsBaromVisibWave heightAir tempDewpointWater temp
2015-Jul-29 02:15N 39°33' E 002°40'68 2.2
2015-Jul-27 19:15N 38°54' E 001°29'3 1.2
2015-Jul-27 17:13N 38°54' E 001°25'10 2.0
2015-Jul-27 12:28N 38°53' E 001°13'4 2.1
2015-Jul-27 10:33N 38°57' E 001°13'12 0.5
2015-Jul-26 10:24N 38°49' E 001°23'4 1.0
2015-Jul-26 06:17N 38°53' E 001°25'912.3
2015-Jul-26 05:34N 38°58' E 001°34'1 1.0
2015-Jul-26 04:33N 38°59' E 001°34'0 0.0
2015-Jul-26 03:33N 38°59' E 001°34'0 0.0
2015-Jul-26 02:33N 38°59' E 001°34'0 0.0
2015-Jul-26 01:33N 38°59' E 001°34'0 0.0
2015-Jul-26 00:33N 38°59' E 001°34'0 0.0
2015-Jul-25 23:33N 38°59' E 001°34'0 0.0
2015-Jul-25 22:33N 38°59' E 001°34'0 0.0
2015-Jul-25 21:33N 38°59' E 001°34'0 0.0
2015-Jul-25 20:33N 38°59' E 001°34'0 0.0
2015-Jul-25 19:33N 38°59' E 001°34'0 0.0
2015-Jul-25 18:33N 38°59' E 001°34'1 1.4
2015-Jul-25 17:34N 38°59' E 001°36'9 2.2
2015-Jul-25 13:33N 39°07' E 001°30'7 6.8
2015-Jul-25 12:33N 39°02' E 001°37'0 0.0
2015-Jul-25 11:33N 39°02' E 001°37'0 0.4
2015-Jul-25 10:33N 39°02' E 001°37'4 3.9
2015-Jul-25 09:31N 38°59' E 001°34'0 0.0
2015-Jul-25 08:31N 38°59' E 001°34'0 0.0
2015-Jul-25 07:31N 38°59' E 001°34'0 0.0
2015-Jul-25 06:31N 38°59' E 001°34'0 0.0
2015-Jul-25 05:31N 38°59' E 001°34'0 0.0
2015-Jul-25 04:31N 38°59' E 001°34'0 0.0
2015-Jul-25 03:19N 38°59' E 001°34'0 0.0
2015-Jul-25 02:31N 38°59' E 001°34'0 0.0
2015-Jul-25 01:31N 38°59' E 001°34'0 0.0
2015-Jul-25 00:31N 38°59' E 001°34'0 0.0
2015-Jul-24 23:31N 38°59' E 001°34'0 0.0
2015-Jul-24 22:31N 38°59' E 001°34'0 0.0
2015-Jul-24 21:31N 38°59' E 001°34'0 0.0
2015-Jul-24 20:31N 38°59' E 001°34'0 0.0
2015-Jul-24 19:31N 38°59' E 001°34'0 0.0
2015-Jul-24 18:31N 38°59' E 001°34'0 0.0
2015-Jul-24 17:31N 38°59' E 001°34'0 0.4
2015-Jul-24 16:33N 38°59' E 001°34'1514.4
2015-Jul-24 15:31N 38°46' E 001°25'1 0.3
2015-Jul-24 12:32N 38°45' E 001°26'6 1.7
2015-Jul-24 09:07N 38°41' E 001°31'0 0.0
2015-Jul-23 23:25N 38°41' E 001°31'1 0.2
2015-Jul-23 17:33N 38°42' E 001°31'6 2.7
2015-Jul-23 15:22N 38°46' E 001°26'0 0.0
2015-Jul-22 11:28N 38°46' E 001°26'0 0.0
2015-Jul-22 10:28N 38°46' E 001°26'0 0.0
2015-Jul-22 09:28N 38°46' E 001°26'0 0.0
2015-Jul-22 08:16N 38°46' E 001°26'2 2.5
2015-Jul-22 07:33N 38°48' E 001°24'6 5.4
2015-Jul-22 06:25N 38°54' E 001°26'0 0.0
2015-Jul-22 05:07N 38°54' E 001°26'0 0.0
2015-Jul-22 04:24N 38°54' E 001°26'0 0.0
2015-Jul-21 13:25N 38°54' E 001°26'2 0.1
2015-Jul-20 07:04N 38°54' E 001°28'0 0.0
2015-Jul-20 06:07N 38°54' E 001°28'1 2.2
2015-Jul-20 05:33N 38°54' E 001°29'1111.2
2015-Jul-20 04:33N 38°60' E 001°42'1211.6
2015-Jul-20 03:33N 39°10' E 001°48'1514.5
2015-Jul-20 02:31N 39°24' E 001°56'1414.6
2015-Jul-20 01:33N 39°37' E 002°04'1414.5
2015-Jul-20 00:33N 39°48' E 002°15'1514.7
2015-Jul-19 23:33N 40°00' E 002°27'1514.6
2015-Jul-19 22:34N 40°12' E 002°38'1514.4
2015-Jul-19 21:31N 40°24' E 002°50'1414.3
2015-Jul-19 20:32N 40°35' E 003°01'10314.7
2015-Jul-19 13:33N 41°57' E 004°24'  
Track history (hours):
 
Tides and Currents Weather Stations Pressure Air Temp Water Temp Dewpoint Dewpoint Depression Visibility Wind Speed Wind Dir Waves Ship Positions

C2

Last reported at 2015-Jul-29 02:15 UTC. Time now 2015-Jul-29 02:38 UTC.
Position N 39°33' E 002°40'.

Length 79 m; draft 3.4 m.

Type: Pleasure craft. MMSI: 319268000.

Date/timePositionNaut miles runAvg speedWind from/ knotsBaromVisibWave heightAir tempDewpointWater temp
2015-Jul-29 02:15N 39°33' E 002°40'68 2.2
2015-Jul-27 19:15N 38°54' E 001°29'3 1.2
2015-Jul-27 17:13N 38°54' E 001°25'10 2.0
2015-Jul-27 12:28N 38°53' E 001°13'4 2.1
2015-Jul-27 10:33N 38°57' E 001°13'12 0.5
2015-Jul-26 10:24N 38°49' E 001°23'4 1.0
2015-Jul-26 06:17N 38°53' E 001°25'912.3
2015-Jul-26 05:34N 38°58' E 001°34'1 1.0
2015-Jul-26 04:33N 38°59' E 001°34'0 0.0
2015-Jul-26 03:33N 38°59' E 001°34'0 0.0
2015-Jul-26 02:33N 38°59' E 001°34'0 0.0
2015-Jul-26 01:33N 38°59' E 001°34'0 0.0
2015-Jul-26 00:33N 38°59' E 001°34'0 0.0
2015-Jul-25 23:33N 38°59' E 001°34'0 0.0
2015-Jul-25 22:33N 38°59' E 001°34'0 0.0
2015-Jul-25 21:33N 38°59' E 001°34'0 0.0
2015-Jul-25 20:33N 38°59' E 001°34'0 0.0
2015-Jul-25 19:33N 38°59' E 001°34'0 0.0
2015-Jul-25 18:33N 38°59' E 001°34'1 1.4
2015-Jul-25 17:34N 38°59' E 001°36'9 2.2
2015-Jul-25 13:33N 39°07' E 001°30'7 6.8
2015-Jul-25 12:33N 39°02' E 001°37'0 0.0
2015-Jul-25 11:33N 39°02' E 001°37'0 0.4
2015-Jul-25 10:33N 39°02' E 001°37'4 3.9
2015-Jul-25 09:31N 38°59' E 001°34'0 0.0
2015-Jul-25 08:31N 38°59' E 001°34'0 0.0
2015-Jul-25 07:31N 38°59' E 001°34'0 0.0
2015-Jul-25 06:31N 38°59' E 001°34'0 0.0
2015-Jul-25 05:31N 38°59' E 001°34'0 0.0
2015-Jul-25 04:31N 38°59' E 001°34'0 0.0
2015-Jul-25 03:19N 38°59' E 001°34'0 0.0
2015-Jul-25 02:31N 38°59' E 001°34'0 0.0
2015-Jul-25 01:31N 38°59' E 001°34'0 0.0
2015-Jul-25 00:31N 38°59' E 001°34'0 0.0
2015-Jul-24 23:31N 38°59' E 001°34'0 0.0
2015-Jul-24 22:31N 38°59' E 001°34'0 0.0
2015-Jul-24 21:31N 38°59' E 001°34'0 0.0
2015-Jul-24 20:31N 38°59' E 001°34'0 0.0
2015-Jul-24 19:31N 38°59' E 001°34'0 0.0
2015-Jul-24 18:31N 38°59' E 001°34'0 0.0
2015-Jul-24 17:31N 38°59' E 001°34'0 0.4
2015-Jul-24 16:33N 38°59' E 001°34'1514.4
2015-Jul-24 15:31N 38°46' E 001°25'1 0.3
2015-Jul-24 12:32N 38°45' E 001°26'6 1.7
2015-Jul-24 09:07N 38°41' E 001°31'0 0.0
2015-Jul-23 23:25N 38°41' E 001°31'1 0.2
2015-Jul-23 17:33N 38°42' E 001°31'6 2.7
2015-Jul-23 15:22N 38°46' E 001°26'0 0.0
2015-Jul-22 11:28N 38°46' E 001°26'0 0.0
2015-Jul-22 10:28N 38°46' E 001°26'0 0.0
2015-Jul-22 09:28N 38°46' E 001°26'0 0.0
2015-Jul-22 08:16N 38°46' E 001°26'2 2.5
2015-Jul-22 07:33N 38°48' E 001°24'6 5.4
2015-Jul-22 06:25N 38°54' E 001°26'0 0.0
2015-Jul-22 05:07N 38°54' E 001°26'0 0.0
2015-Jul-22 04:24N 38°54' E 001°26'0 0.0
2015-Jul-21 13:25N 38°54' E 001°26'2 0.1
2015-Jul-20 07:04N 38°54' E 001°28'0 0.0
2015-Jul-20 06:07N 38°54' E 001°28'1 2.2
2015-Jul-20 05:33N 38°54' E 001°29'1111.2
2015-Jul-20 04:33N 38°60' E 001°42'1211.6
2015-Jul-20 03:33N 39°10' E 001°48'1514.5
2015-Jul-20 02:31N 39°24' E 001°56'1414.6
2015-Jul-20 01:33N 39°37' E 002°04'1414.5
2015-Jul-20 00:33N 39°48' E 002°15'1514.7
2015-Jul-19 23:33N 40°00' E 002°27'1514.6
2015-Jul-19 22:34N 40°12' E 002°38'1514.4
2015-Jul-19 21:31N 40°24' E 002°50'1414.3
2015-Jul-19 20:32N 40°35' E 003°01'10314.7
2015-Jul-19 13:33N 41°57' E 004°24'  

Dump ship's entire track history